Time,TemperatureF,DewpointF,PressureIn,WindDirection,WindDirectionDegrees,WindSpeedMPH,WindSpeedGustMPH,Humidity,HourlyPrecipIn,Conditions,Clouds,dailyrainin,SoftwareType,DateUTC
2013-07-10 00:00:00,83.2,39.2,30.14,WNW,300,0.0,4.0,21,0.00,,,0.00,Wunderground v.1.15,2013-07-10 07:00:00,
2013-07-10 00:10:00,82.9,40.1,30.14,WNW,301,0.0,4.0,22,0.00,,,0.00,Wunderground v.1.15,2013-07-10 07:10:00,
2013-07-10 00:20:00,82.9,38.9,30.14,NNW,346,0.0,4.0,21,0.00,,,0.00,Wunderground v.1.15,2013-07-10 07:20:00,
2013-07-10 00:30:00,82.7,38.8,30.15,NNW,346,0.0,4.0,21,0.00,,,0.00,Wunderground v.1.15,2013-07-10 07:30:00,
2013-07-10 00:35:00,82.7,38.8,30.14,NNW,346,0.0,4.0,21,0.00,,,0.00,Wunderground v.1.15,2013-07-10 07:35:00,
2013-07-10 00:45:00,82.6,38.7,30.14,NNW,346,0.0,4.0,21,0.00,,,0.00,Wunderground v.1.15,2013-07-10 07:45:00,
2013-07-10 00:50:00,82.7,38.8,30.14,NNW,346,0.0,4.0,21,0.00,,,0.00,Wunderground v.1.15,2013-07-10 07:50:00,
2013-07-10 00:55:00,82.7,40.0,30.14,North,1,1.0,4.0,22,0.00,,,0.00,Wunderground v.1.15,2013-07-10 07:55:00,
2013-07-10 01:00:00,82.7,38.8,30.14,North,350,1.0,4.0,21,0.00,,,0.00,Wunderground v.1.15,2013-07-10 08:00:00,
2013-07-10 01:10:00,82.7,38.8,30.14,North,350,0.0,4.0,21,0.00,,,0.00,Wunderground v.1.15,2013-07-10 08:10:00,
2013-07-10 01:20:00,83.2,37.9,30.13,NW,323,1.0,1.0,20,0.00,,,0.00,Wunderground v.1.15,2013-07-10 08:20:00,
2013-07-10 01:25:00,83.4,38.1,30.13,NW,323,1.0,4.0,20,0.00,,,0.00,Wunderground v.1.15,2013-07-10 08:25:00,
2013-07-10 01:30:00,83.5,36.9,30.13,NW,324,1.0,1.0,19,0.00,,,0.00,Wunderground v.1.15,2013-07-10 08:30:00,
2013-07-10 01:40:00,83.8,37.1,30.13,NW,324,1.0,1.0,19,0.00,,,0.00,Wunderground v.1.15,2013-07-10 08:40:00,
2013-07-10 01:45:00,83.8,37.1,30.12,NW,323,1.0,4.0,19,0.00,,,0.00,Wunderground v.1.15,2013-07-10 08:45:00,
2013-07-10 01:50:00,83.9,37.2,30.12,NW,310,1.0,1.0,19,0.00,,,0.00,Wunderground v.1.15,2013-07-10 08:50:00,
2013-07-10 02:00:00,84.3,36.2,30.12,WNW,294,2.0,2.0,18,0.00,,,0.00,Wunderground v.1.15,2013-07-10 09:00:00,
2013-07-10 02:05:00,84.4,36.2,30.12,WNW,294,2.0,6.0,18,0.00,,,0.00,Wunderground v.1.15,2013-07-10 09:05:00,
2013-07-10 02:15:00,83.9,37.2,30.12,WNW,294,1.0,6.0,19,0.00,,,0.00,Wunderground v.1.15,2013-07-10 09:15:00,
2013-07-10 02:25:00,83.5,36.9,30.13,WNW,294,0.0,6.0,19,0.00,,,0.00,Wunderground v.1.15,2013-07-10 09:25:00,
2013-07-10 02:30:00,83.5,36.9,30.13,WNW,294,1.0,6.0,19,0.00,,,0.00,Wunderground v.1.15,2013-07-10 09:30:00,
2013-07-10 02:35:00,83.4,38.1,30.13,WNW,294,2.0,6.0,20,0.00,,,0.00,Wunderground v.1.15,2013-07-10 09:35:00,
2013-07-10 02:45:00,83.4,38.1,30.12,WNW,294,0.0,4.0,20,0.00,,,0.00,Wunderground v.1.15,2013-07-10 09:45:00,
2013-07-10 02:50:00,83.3,38.0,30.13,WNW,294,0.0,4.0,20,0.00,,,0.00,Wunderground v.1.15,2013-07-10 09:50:00,
2013-07-10 03:00:00,83.1,39.1,30.12,NNW,343,1.0,6.0,21,0.00,,,0.00,Wunderground v.1.15,2013-07-10 10:00:00,
2013-07-10 03:05:00,83.4,39.4,30.12,NNW,343,3.0,7.0,21,0.00,,,0.00,Wunderground v.1.15,2013-07-10 10:05:00,
2013-07-10 03:15:00,83.3,39.3,30.13,North,350,3.0,9.0,21,0.00,,,0.00,Wunderground v.1.15,2013-07-10 10:15:00,
2013-07-10 03:20:00,83.0,39.0,30.13,NNW,347,1.0,1.0,21,0.00,,,0.00,Wunderground v.1.15,2013-07-10 10:20:00,
2013-07-10 03:25:00,82.8,38.9,30.13,NNW,347,0.0,9.0,21,0.00,,,0.00,Wunderground v.1.15,2013-07-10 10:25:00,
2013-07-10 03:30:00,82.8,38.9,30.13,NNW,347,0.0,9.0,21,0.00,,,0.00,Wunderground v.1.15,2013-07-10 10:30:00,
2013-07-10 03:40:00,82.4,38.5,30.14,NNW,347,0.0,10.0,21,0.00,,,0.00,Wunderground v.1.15,2013-07-10 10:40:00,
2013-07-10 03:45:00,82.5,38.6,30.14,NNW,347,0.0,10.0,21,0.00,,,0.00,Wunderground v.1.15,2013-07-10 10:45:00,
2013-07-10 03:50:00,82.4,38.5,30.14,NNW,347,0.0,10.0,21,0.00,,,0.00,Wunderground v.1.15,2013-07-10 10:50:00,
2013-07-10 04:00:00,82.4,39.7,30.15,NNW,347,0.0,10.0,22,0.00,,,0.00,Wunderground v.1.15,2013-07-10 11:00:00,
2013-07-10 04:05:00,82.3,39.6,30.15,NNW,338,1.0,10.0,22,0.00,,,0.00,Wunderground v.1.15,2013-07-10 11:05:00,
2013-07-10 04:15:00,81.4,40.0,30.15,NNW,333,6.0,6.0,23,0.00,,,0.00,Wunderground v.1.15,2013-07-10 11:15:00,
2013-07-10 04:20:00,80.8,42.7,30.15,NNW,327,7.0,7.0,26,0.00,,,0.00,Wunderground v.1.15,2013-07-10 11:20:00,
2013-07-10 04:30:00,79.5,46.2,30.15,NNE,14,6.0,6.0,31,0.00,,,0.00,Wunderground v.1.15,2013-07-10 11:30:00,
2013-07-10 04:35:00,78.7,48.7,30.15,NNE,21,5.0,14.0,35,0.00,,,0.00,Wunderground v.1.15,2013-07-10 11:35:00,
2013-07-10 04:45:00,76.9,54.5,30.15,NNE,13,9.0,14.0,46,0.00,,,0.00,Wunderground v.1.15,2013-07-10 11:45:00,
2013-07-10 04:50:00,76.4,56.4,30.15,NNE,13,9.0,14.0,50,0.00,,,0.00,Wunderground v.1.15,2013-07-10 11:50:00,
2013-07-10 04:55:00,75.8,58.5,30.15,North,349,10.0,14.0,55,0.00,,,0.00,Wunderground v.1.15,2013-07-10 11:55:00,
2013-07-10 05:05:00,74.9,61.0,30.15,NNW,335,10.0,22.0,62,0.00,,,0.00,Wunderground v.1.15,2013-07-10 12:05:00,
2013-07-10 05:15:00,73.5,65.1,30.15,NW,323,11.0,22.0,75,0.00,,,0.00,Wunderground v.1.15,2013-07-10 12:15:00,
2013-07-10 05:20:00,73.3,65.3,30.15,North,352,10.0,10.0,76,0.00,,,0.00,Wunderground v.1.15,2013-07-10 12:20:00,
2013-07-10 05:30:00,72.3,65.4,30.15,NNW,333,9.0,9.0,79,0.00,,,0.00,Wunderground v.1.15,2013-07-10 12:30:00,
2013-07-10 05:35:00,72.0,65.5,30.15,NW,325,8.0,22.0,80,0.00,,,0.00,Wunderground v.1.15,2013-07-10 12:35:00,
2013-07-10 05:45:00,71.7,65.2,30.15,NNW,339,7.0,22.0,80,0.00,,,0.00,Wunderground v.1.15,2013-07-10 12:45:00,
2013-07-10 05:50:00,71.6,65.1,30.15,NNW,331,6.0,22.0,80,0.00,,,0.00,Wunderground v.1.15,2013-07-10 12:50:00,
2013-07-10 05:55:00,71.3,65.2,30.15,North,2,7.0,22.0,81,0.00,,,0.00,Wunderground v.1.15,2013-07-10 12:55:00,
2013-07-10 06:00:00,71.0,65.2,30.14,North,356,8.0,8.0,82,0.00,,,0.00,Wunderground v.1.15,2013-07-10 13:00:00,
2013-07-10 06:10:00,71.0,65.2,30.14,NW,312,7.0,17.0,82,0.00,,,0.00,Wunderground v.1.15,2013-07-10 13:10:00,
2013-07-10 06:15:00,71.0,64.9,30.14,NNW,332,6.0,17.0,81,0.00,,,0.00,Wunderground v.1.15,2013-07-10 13:15:00,
2013-07-10 06:20:00,71.0,64.9,30.14,NW,316,7.0,7.0,81,0.00,,,0.00,Wunderground v.1.15,2013-07-10 13:20:00,
2013-07-10 06:30:00,71.1,65.0,30.14,NNW,337,7.0,7.0,81,0.00,,,0.00,Wunderground v.1.15,2013-07-10 13:30:00,
2013-07-10 06:35:00,71.3,64.8,30.14,NW,312,8.0,8.0,80,0.00,,,0.00,Wunderground v.1.15,2013-07-10 13:35:00,
2013-07-10 06:45:00,71.5,64.3,30.14,NW,309,11.0,16.0,78,0.00,,,0.00,Wunderground v.1.15,2013-07-10 13:45:00,
2013-07-10 06:50:00,71.7,64.1,30.14,NW,321,10.0,16.0,77,0.00,,,0.00,Wunderground v.1.15,2013-07-10 13:50:00,
2013-07-10 06:55:00,71.8,64.2,30.14,NNW,328,9.0,16.0,77,0.00,,,0.00,Wunderground v.1.15,2013-07-10 13:55:00,
2013-07-10 07:00:00,72.0,64.0,30.13,NNW,341,9.0,9.0,76,0.00,,,0.00,Wunderground v.1.15,2013-07-10 14:00:00,
2013-07-10 07:05:00,72.3,63.9,30.13,NNW,331,10.0,15.0,75,0.00,,,0.00,Wunderground v.1.15,2013-07-10 14:05:00,
2013-07-10 07:15:00,72.8,64.0,30.14,WNW,292,9.0,19.0,74,0.00,,,0.00,Wunderground v.1.15,2013-07-10 14:15:00,
2013-07-10 07:20:00,73.1,63.5,30.14,NW,315,8.0,19.0,72,0.00,,,0.00,Wunderground v.1.15,2013-07-10 14:20:00,
2013-07-10 07:30:00,73.2,64.0,30.14,NNW,332,7.0,19.0,73,0.00,,,0.00,Wunderground v.1.15,2013-07-10 14:30:00,
2013-07-10 07:35:00,73.2,64.0,30.14,NNW,346,8.0,19.0,73,0.00,,,0.00,Wunderground v.1.15,2013-07-10 14:35:00,
2013-07-10 07:45:00,73.5,64.3,30.14,NW,323,10.0,18.0,73,0.00,,,0.00,Wunderground v.1.15,2013-07-10 14:45:00,
2013-07-10 07:50:00,74.0,64.4,30.14,NNW,348,9.0,9.0,72,0.00,,,0.00,Wunderground v.1.15,2013-07-10 14:50:00,
2013-07-10 08:00:00,74.7,64.3,30.14,NW,325,7.0,7.0,70,0.00,,,0.00,Wunderground v.1.15,2013-07-10 15:00:00,
2013-07-10 08:05:00,75.2,63.9,30.14,NNW,331,6.0,18.0,68,0.00,,,0.00,Wunderground v.1.15,2013-07-10 15:05:00,
2013-07-10 08:15:00,75.8,63.2,30.15,NNW,342,6.0,8.0,65,0.00,,,0.00,Wunderground v.1.15,2013-07-10 15:15:00,
2013-07-10 08:20:00,76.0,63.4,30.15,North,6,7.0,7.0,65,0.00,,,0.00,Wunderground v.1.15,2013-07-10 15:20:00,
2013-07-10 08:25:00,76.1,63.5,30.15,North,5,7.0,18.0,65,0.00,,,0.00,Wunderground v.1.15,2013-07-10 15:25:00,
2013-07-10 08:35:00,76.9,63.3,30.15,NNW,342,7.0,18.0,63,0.00,,,0.00,Wunderground v.1.15,2013-07-10 15:35:00,
2013-07-10 08:45:00,78.4,62.9,30.14,NNW,343,6.0,13.0,59,0.00,,,0.00,Wunderground v.1.15,2013-07-10 15:45:00,
2013-07-10 08:50:00,78.6,63.1,30.14,North,357,5.0,5.0,59,0.00,,,0.00,Wunderground v.1.15,2013-07-10 15:50:00,
2013-07-10 09:00:00,79.3,64.2,30.13,NNE,28,4.0,4.0,60,0.00,,,0.00,Wunderground v.1.15,2013-07-10 16:00:00,
2013-07-10 09:05:00,79.6,64.0,30.14,NNE,31,3.0,12.0,59,0.00,,,0.00,Wunderground v.1.15,2013-07-10 16:05:00,
2013-07-10 09:10:00,80.1,64.5,30.13,NE,39,2.0,12.0,59,0.00,,,0.00,Wunderground v.1.15,2013-07-10 16:10:00,
2013-07-10 09:20:00,80.9,65.2,30.13,NE,45,2.0,2.0,59,0.00,,,0.00,Wunderground v.1.15,2013-07-10 16:20:00,
2013-07-10 09:30:00,80.2,65.5,30.13,ENE,57,2.0,2.0,61,0.00,,,0.00,Wunderground v.1.15,2013-07-10 16:30:00,
2013-07-10 09:35:00,80.1,65.4,30.13,ENE,57,2.0,4.0,61,0.00,,,0.00,Wunderground v.1.15,2013-07-10 16:35:00,
2013-07-10 09:45:00,80.7,65.0,30.13,NE,52,2.0,6.0,59,0.00,,,0.00,Wunderground v.1.15,2013-07-10 16:45:00,
2013-07-10 09:50:00,81.7,64.0,30.13,ENE,59,2.0,6.0,55,0.00,,,0.00,Wunderground v.1.15,2013-07-10 16:50:00,
2013-07-10 10:00:00,83.7,61.9,30.13,NE,51,3.0,6.0,48,0.00,,,0.00,Wunderground v.1.15,2013-07-10 17:00:00,
2013-07-10 10:05:00,84.6,62.7,30.13,NE,50,3.0,8.0,48,0.00,,,0.00,Wunderground v.1.15,2013-07-10 17:05:00,
2013-07-10 10:10:00,85.5,63.0,30.12,NE,46,3.0,8.0,47,0.00,,,0.00,Wunderground v.1.15,2013-07-10 17:10:00,
2013-07-10 10:15:00,85.5,59.8,30.12,NE,53,2.0,8.0,42,0.00,,,0.00,Wunderground v.1.15,2013-07-10 17:15:00,
2013-07-10 10:25:00,87.0,60.5,30.12,NE,53,2.0,8.0,41,0.00,,,0.00,Wunderground v.1.15,2013-07-10 17:25:00,
2013-07-10 10:30:00,86.9,61.0,30.13,NNE,27,3.0,8.0,42,0.00,,,0.00,Wunderground v.1.15,2013-07-10 17:30:00,
2013-07-10 10:35:00,87.2,58.5,30.12,NNE,30,3.0,10.0,38,0.00,,,0.00,Wunderground v.1.15,2013-07-10 17:35:00,
2013-07-10 10:45:00,87.5,61.6,30.12,ENE,58,2.0,4.0,42,0.00,,,0.00,Wunderground v.1.15,2013-07-10 17:45:00,
2013-07-10 10:50:00,87.8,63.2,30.12,ENE,69,2.0,10.0,44,0.00,,,0.00,Wunderground v.1.15,2013-07-10 17:50:00,
2013-07-10 11:00:00,88.7,61.3,30.12,ENE,69,3.0,10.0,40,0.00,,,0.00,Wunderground v.1.15,2013-07-10 18:00:00,
2013-07-10 11:05:00,90.2,57.2,30.12,NW,312,4.0,12.0,33,0.00,,,0.00,Wunderground v.1.15,2013-07-10 18:05:00,
2013-07-10 11:15:00,89.8,57.7,30.12,NNW,339,7.0,7.0,34,0.00,,,0.00,Wunderground v.1.15,2013-07-10 18:15:00,
2013-07-10 11:20:00,89.7,55.9,30.12,NW,310,8.0,8.0,32,0.00,,,0.00,Wunderground v.1.15,2013-07-10 18:20:00,
2013-07-10 11:30:00,90.2,58.0,30.12,NW,319,8.0,12.0,34,0.00,,,0.00,Wunderground v.1.15,2013-07-10 18:30:00,
2013-07-10 11:35:00,89.9,57.8,30.12,NW,306,8.0,17.0,34,0.00,,,0.00,Wunderground v.1.15,2013-07-10 18:35:00,
2013-07-10 11:45:00,89.2,58.8,30.12,North,349,9.0,17.0,36,0.00,,,0.00,Wunderground v.1.15,2013-07-10 18:45:00,
2013-07-10 11:50:00,89.3,57.3,30.12,NW,323,8.0,17.0,34,0.00,,,0.00,Wunderground v.1.15,2013-07-10 18:50:00,
2013-07-10 12:00:00,88.9,59.3,30.12,NW,312,8.0,8.0,37,0.00,,,0.00,Wunderground v.1.15,2013-07-10 19:00:00,
2013-07-10 12:10:00,87.9,59.8,30.12,NNW,342,8.0,16.0,39,0.00,,,0.00,Wunderground v.1.15,2013-07-10 19:10:00,
2013-07-10 12:15:00,87.6,60.3,30.12,NNW,348,7.0,16.0,40,0.00,,,0.00,Wunderground v.1.15,2013-07-10 19:15:00,
2013-07-10 12:20:00,87.7,61.1,30.12,NNW,327,8.0,16.0,41,0.00,,,0.00,Wunderground v.1.15,2013-07-10 19:20:00,
2013-07-10 12:30:00,87.4,61.5,30.11,NNW,336,8.0,8.0,42,0.00,,,0.00,Wunderground v.1.15,2013-07-10 19:30:00,
2013-07-10 12:35:00,87.2,62.6,30.11,NNW,333,9.0,9.0,44,0.00,,,0.00,Wunderground v.1.15,2013-07-10 19:35:00,
2013-07-10 12:45:00,87.6,63.0,30.11,NNW,327,8.0,17.0,44,0.00,,,0.00,Wunderground v.1.15,2013-07-10 19:45:00,
2013-07-10 12:50:00,87.5,62.9,30.11,NNW,331,8.0,8.0,44,0.00,,,0.00,Wunderground v.1.15,2013-07-10 19:50:00,
2013-07-10 13:00:00,88.3,63.0,30.11,NW,314,9.0,17.0,43,0.00,,,0.00,Wunderground v.1.15,2013-07-10 20:00:00,
2013-07-10 13:05:00,88.5,61.8,30.10,NNW,333,8.0,18.0,41,0.00,,,0.00,Wunderground v.1.15,2013-07-10 20:05:00,
2013-07-10 13:15:00,89.2,60.3,30.10,NNE,22,10.0,18.0,38,0.00,,,0.00,Wunderground v.1.15,2013-07-10 20:15:00,
2013-07-10 13:20:00,89.9,61.6,30.10,NNE,19,9.0,18.0,39,0.00,,,0.00,Wunderground v.1.15,2013-07-10 20:20:00,
2013-07-10 13:30:00,89.4,64.0,30.10,NNW,329,9.0,18.0,43,0.00,,,0.00,Wunderground v.1.15,2013-07-10 20:30:00,
2013-07-10 13:35:00,90.1,64.6,30.10,North,2,9.0,18.0,43,0.00,,,0.00,Wunderground v.1.15,2013-07-10 20:35:00,
2013-07-10 13:45:00,89.0,64.9,30.09,NNW,333,11.0,17.0,45,0.00,,,0.00,Wunderground v.1.15,2013-07-10 20:45:00,
2013-07-10 13:50:00,89.3,65.2,30.09,NNW,335,11.0,17.0,45,0.00,,,0.00,Wunderground v.1.15,2013-07-10 20:50:00,
2013-07-10 14:00:00,88.8,64.1,30.09,NNW,330,12.0,12.0,44,0.00,,,0.00,Wunderground v.1.15,2013-07-10 21:00:00,
2013-07-10 14:10:00,89.0,63.6,30.09,NNW,341,12.0,22.0,43,0.00,,,0.00,Wunderground v.1.15,2013-07-10 21:10:00,
2013-07-10 14:15:00,88.6,63.2,30.09,NNW,340,12.0,22.0,43,0.00,,,0.00,Wunderground v.1.15,2013-07-10 21:15:00,
2013-07-10 14:20:00,88.3,64.3,30.09,NNW,333,12.0,12.0,45,0.00,,,0.00,Wunderground v.1.15,2013-07-10 21:20:00,
2013-07-10 14:30:00,87.1,62.5,30.09,NW,314,11.0,22.0,44,0.00,,,0.00,Wunderground v.1.15,2013-07-10 21:30:00,
2013-07-10 14:35:00,86.8,62.9,30.09,NW,326,12.0,22.0,45,0.00,,,0.00,Wunderground v.1.15,2013-07-10 21:35:00,
2013-07-10 14:45:00,85.8,63.8,30.09,NNW,331,13.0,14.0,48,0.00,,,0.00,Wunderground v.1.15,2013-07-10 21:45:00,
2013-07-10 14:50:00,86.9,63.0,30.09,NW,319,12.0,22.0,45,0.00,,,0.00,Wunderground v.1.15,2013-07-10 21:50:00,
2013-07-10 14:55:00,87.3,62.1,30.09,NW,308,12.0,22.0,43,0.00,,,0.00,Wunderground v.1.15,2013-07-10 21:55:00,
2013-07-10 15:05:00,87.0,63.7,30.09,NW,308,11.0,21.0,46,0.00,,,0.00,Wunderground v.1.15,2013-07-10 22:05:00,
2013-07-10 15:10:00,86.4,62.5,30.09,NNW,339,10.0,21.0,45,0.00,,,0.00,Wunderground v.1.15,2013-07-10 22:10:00,
2013-07-10 15:20:00,85.9,62.7,30.08,NNW,331,13.0,13.0,46,0.00,,,0.00,Wunderground v.1.15,2013-07-10 22:20:00,
2013-07-10 15:25:00,85.7,61.3,30.08,NNW,340,12.0,21.0,44,0.00,,,0.00,Wunderground v.1.15,2013-07-10 22:25:00,
2013-07-10 15:30:00,85.6,62.4,30.08,NNW,343,11.0,21.0,46,0.00,,,0.00,Wunderground v.1.15,2013-07-10 22:30:00,
2013-07-10 15:35:00,84.9,63.0,30.08,NW,323,11.0,21.0,48,0.00,,,0.00,Wunderground v.1.15,2013-07-10 22:35:00,
2013-07-10 15:45:00,85.2,61.5,30.07,NNW,329,10.0,16.0,45,0.00,,,0.00,Wunderground v.1.15,2013-07-10 22:45:00,
2013-07-10 15:50:00,84.9,61.2,30.07,NNW,337,11.0,11.0,45,0.00,,,0.00,Wunderground v.1.15,2013-07-10 22:50:00,
2013-07-10 15:55:00,84.8,62.3,30.07,NNW,337,10.0,12.0,47,0.00,,,0.00,Wunderground v.1.15,2013-07-10 22:55:00,
2013-07-10 16:05:00,84.7,63.4,30.07,NW,309,9.0,22.0,49,0.00,,,0.00,Wunderground v.1.15,2013-07-10 23:05:00,
2013-07-10 16:10:00,84.9,63.6,30.06,WNW,302,11.0,22.0,49,0.00,,,0.00,Wunderground v.1.15,2013-07-10 23:10:00,
2013-07-10 16:15:00,84.8,62.9,30.06,NNW,329,11.0,22.0,48,0.00,,,0.00,Wunderground v.1.15,2013-07-10 23:15:00,
2013-07-10 16:20:00,84.7,63.4,30.06,NW,324,12.0,12.0,49,0.00,,,0.00,Wunderground v.1.15,2013-07-10 23:20:00,
2013-07-10 16:30:00,85.2,62.1,30.06,WNW,295,10.0,22.0,46,0.00,,,0.00,Wunderground v.1.15,2013-07-10 23:30:00,
2013-07-10 16:35:00,85.2,60.8,30.06,NW,308,10.0,22.0,44,0.00,,,0.00,Wunderground v.1.15,2013-07-10 23:35:00,
2013-07-10 16:45:00,85.2,58.2,30.06,WNW,298,10.0,21.0,40,0.00,,,0.00,Wunderground v.1.15,2013-07-10 23:45:00,
2013-07-10 16:50:00,85.1,57.4,30.05,West,280,10.0,10.0,39,0.00,,,0.00,Wunderground v.1.15,2013-07-10 23:50:00,
2013-07-10 17:00:00,85.8,55.8,30.05,NW,322,10.0,21.0,36,0.00,,,0.00,Wunderground v.1.15,2013-07-11 00:00:00,
2013-07-10 17:10:00,85.9,55.1,30.05,NW,321,9.0,18.0,35,0.00,,,0.00,Wunderground v.1.15,2013-07-11 00:10:00,
2013-07-10 17:15:00,85.2,54.5,30.05,NW,307,9.0,18.0,35,0.00,,,0.00,Wunderground v.1.15,2013-07-11 00:15:00,
2013-07-10 17:20:00,84.5,53.8,30.05,WNW,297,10.0,18.0,35,0.00,,,0.00,Wunderground v.1.15,2013-07-11 00:20:00,
2013-07-10 17:30:00,83.8,54.0,30.04,WNW,302,10.0,18.0,36,0.00,,,0.00,Wunderground v.1.15,2013-07-11 00:30:00,
2013-07-10 17:35:00,83.5,53.0,30.04,NNW,328,9.0,18.0,35,0.00,,,0.00,Wunderground v.1.15,2013-07-11 00:35:00,
2013-07-10 17:40:00,83.6,53.1,30.04,NW,314,8.0,8.0,35,0.00,,,0.00,Wunderground v.1.15,2013-07-11 00:40:00,
2013-07-10 17:45:00,83.8,53.2,30.04,NW,304,6.0,18.0,35,0.00,,,0.00,Wunderground v.1.15,2013-07-11 00:45:00,
2013-07-10 17:55:00,83.7,53.1,30.04,NW,304,6.0,18.0,35,0.00,,,0.00,Wunderground v.1.15,2013-07-11 00:55:00,
2013-07-10 18:00:00,83.7,52.3,30.04,NW,307,6.0,6.0,34,0.00,,,0.00,Wunderground v.1.15,2013-07-11 01:00:00,
2013-07-10 18:10:00,84.0,52.6,30.04,NW,308,6.0,6.0,34,0.00,,,0.00,Wunderground v.1.15,2013-07-11 01:10:00,
2013-07-10 18:15:00,84.1,52.7,30.04,WNW,302,6.0,7.0,34,0.00,,,0.00,Wunderground v.1.15,2013-07-11 01:15:00,
2013-07-10 18:20:00,84.0,52.6,30.04,NW,313,6.0,14.0,34,0.00,,,0.00,Wunderground v.1.15,2013-07-11 01:20:00,
2013-07-10 18:30:00,83.8,51.6,30.04,WNW,303,6.0,14.0,33,0.00,,,0.00,Wunderground v.1.15,2013-07-11 01:30:00,
2013-07-10 18:35:00,83.9,51.7,30.04,WNW,293,7.0,14.0,33,0.00,,,0.00,Wunderground v.1.15,2013-07-11 01:35:00,
2013-07-10 18:45:00,84.1,51.9,30.04,West,279,5.0,14.0,33,0.00,,,0.00,Wunderground v.1.15,2013-07-11 01:45:00,
2013-07-10 18:50:00,83.9,51.7,30.04,WNW,290,6.0,14.0,33,0.00,,,0.00,Wunderground v.1.15,2013-07-11 01:50:00,
2013-07-10 18:55:00,83.6,52.3,30.04,West,277,6.0,14.0,34,0.00,,,0.00,Wunderground v.1.15,2013-07-11 01:55:00,
2013-07-10 19:00:00,83.3,52.0,30.05,WNW,290,6.0,6.0,34,0.00,,,0.00,Wunderground v.1.15,2013-07-11 02:00:00,
2013-07-10 19:10:00,83.0,51.7,30.05,WNW,287,4.0,4.0,34,0.00,,,0.00,Wunderground v.1.15,2013-07-11 02:10:00,
2013-07-10 19:15:00,82.9,51.6,30.05,West,276,3.0,13.0,34,0.00,,,0.00,Wunderground v.1.15,2013-07-11 02:15:00,
2013-07-10 19:20:00,82.9,51.6,30.05,West,271,3.0,13.0,34,0.00,,,0.00,Wunderground v.1.15,2013-07-11 02:20:00,
2013-07-10 19:25:00,82.8,52.3,30.06,WNW,292,3.0,13.0,35,0.00,,,0.00,Wunderground v.1.15,2013-07-11 02:25:00,
2013-07-10 19:35:00,82.3,51.9,30.05,WNW,283,4.0,13.0,35,0.00,,,0.00,Wunderground v.1.15,2013-07-11 02:35:00,
2013-07-10 19:40:00,82.2,51.8,30.05,WNW,286,4.0,4.0,35,0.00,,,0.00,Wunderground v.1.15,2013-07-11 02:40:00,
2013-07-10 19:45:00,82.1,51.7,30.05,WNW,284,3.0,5.0,35,0.00,,,0.00,Wunderground v.1.15,2013-07-11 02:45:00,
2013-07-10 19:55:00,82.0,50.1,30.05,WNW,300,4.0,5.0,33,0.00,,,0.00,Wunderground v.1.15,2013-07-11 02:55:00,
2013-07-10 20:00:00,82.0,50.1,30.05,WNW,288,5.0,5.0,33,0.00,,,0.00,Wunderground v.1.15,2013-07-11 03:00:00,
2013-07-10 20:05:00,82.0,50.1,30.06,WNW,296,3.0,12.0,33,0.00,,,0.00,Wunderground v.1.15,2013-07-11 03:05:00,
2013-07-10 20:15:00,82.0,50.9,30.06,NW,309,3.0,12.0,34,0.00,,,0.00,Wunderground v.1.15,2013-07-11 03:15:00,
2013-07-10 20:20:00,81.9,50.8,30.07,NW,310,2.0,2.0,34,0.00,,,0.00,Wunderground v.1.15,2013-07-11 03:20:00,
2013-07-10 20:25:00,81.9,50.8,30.06,NW,307,2.0,6.0,34,0.00,,,0.00,Wunderground v.1.15,2013-07-11 03:25:00,
2013-07-10 20:30:00,82.0,50.9,30.07,NNW,327,3.0,3.0,34,0.00,,,0.00,Wunderground v.1.15,2013-07-11 03:30:00,
2013-07-10 20:40:00,81.9,50.8,30.06,NNW,328,1.0,1.0,34,0.00,,,0.00,Wunderground v.1.15,2013-07-11 03:40:00,
2013-07-10 20:45:00,81.8,50.7,30.06,NNW,328,0.0,8.0,34,0.00,,,0.00,Wunderground v.1.15,2013-07-11 03:45:00,
2013-07-10 20:50:00,81.6,51.3,30.06,NNW,328,0.0,8.0,35,0.00,,,0.00,Wunderground v.1.15,2013-07-11 03:50:00,
2013-07-10 21:00:00,81.4,51.1,30.07,NNW,328,0.0,8.0,35,0.00,,,0.00,Wunderground v.1.15,2013-07-11 04:00:00,
2013-07-10 21:05:00,81.3,51.0,30.07,NNW,328,0.0,8.0,35,0.00,,,0.00,Wunderground v.1.15,2013-07-11 04:05:00,
2013-07-10 21:10:00,81.3,51.0,30.07,NNW,328,0.0,4.0,35,0.00,,,0.00,Wunderground v.1.15,2013-07-11 04:10:00,
2013-07-10 21:20:00,81.4,51.9,30.07,NNW,335,1.0,1.0,36,0.00,,,0.00,Wunderground v.1.15,2013-07-11 04:20:00,
2013-07-10 21:30:00,81.3,51.8,30.08,NNW,335,0.0,4.0,36,0.00,,,0.00,Wunderground v.1.15,2013-07-11 04:30:00,
2013-07-10 21:35:00,81.3,51.8,30.07,West,278,0.0,5.0,36,0.00,,,0.00,Wunderground v.1.15,2013-07-11 04:35:00,
2013-07-10 21:45:00,81.4,51.1,30.07,WNW,288,0.0,5.0,35,0.00,,,0.00,Wunderground v.1.15,2013-07-11 04:45:00,
2013-07-10 21:50:00,81.3,51.0,30.07,WNW,288,1.0,1.0,35,0.00,,,0.00,Wunderground v.1.15,2013-07-11 04:50:00,
2013-07-10 21:55:00,81.1,50.9,30.08,WNW,290,3.0,7.0,35,0.00,,,0.00,Wunderground v.1.15,2013-07-11 04:55:00,
2013-07-10 22:00:00,80.7,50.5,30.08,WNW,289,5.0,5.0,35,0.00,,,0.00,Wunderground v.1.15,2013-07-11 05:00:00,
2013-07-10 22:10:00,80.3,50.9,30.08,WNW,302,5.0,13.0,36,0.00,,,0.00,Wunderground v.1.15,2013-07-11 05:10:00,
2013-07-10 22:15:00,80.1,51.5,30.08,WNW,302,5.0,13.0,37,0.00,,,0.00,Wunderground v.1.15,2013-07-11 05:15:00,
2013-07-10 22:20:00,80.0,51.4,30.08,WNW,295,4.0,4.0,37,0.00,,,0.00,Wunderground v.1.15,2013-07-11 05:20:00,
2013-07-10 22:30:00,79.9,51.3,30.08,NW,308,1.0,1.0,37,0.00,,,0.00,Wunderground v.1.15,2013-07-11 05:30:00,
2013-07-10 22:35:00,79.8,51.2,30.08,NW,308,0.0,10.0,37,0.00,,,0.00,Wunderground v.1.15,2013-07-11 05:35:00,
2013-07-10 22:45:00,79.5,51.7,30.09,NW,308,0.0,10.0,38,0.00,,,0.00,Wunderground v.1.15,2013-07-11 05:45:00,
2013-07-10 22:50:00,79.4,51.6,30.09,NW,307,0.0,10.0,38,0.00,,,0.00,Wunderground v.1.15,2013-07-11 05:50:00,
2013-07-10 22:55:00,79.4,51.6,30.09,NW,316,1.0,10.0,38,0.00,,,0.00,Wunderground v.1.15,2013-07-11 05:55:00,
2013-07-10 23:05:00,79.3,51.5,30.09,WNW,287,2.0,5.0,38,0.00,,,0.00,Wunderground v.1.15,2013-07-11 06:05:00,
2013-07-10 23:15:00,79.1,51.3,30.10,NW,307,4.0,9.0,38,0.00,,,0.00,Wunderground v.1.15,2013-07-11 06:15:00,
2013-07-10 23:20:00,78.8,51.7,30.09,NW,314,2.0,2.0,39,0.00,,,0.00,Wunderground v.1.15,2013-07-11 06:20:00,
2013-07-10 23:30:00,78.8,51.7,30.10,WNW,300,2.0,9.0,39,0.00,,,0.00,Wunderground v.1.15,2013-07-11 06:30:00,
2013-07-10 23:35:00,78.9,51.1,30.09,WNW,291,2.0,9.0,38,0.00,,,0.00,Wunderground v.1.15,2013-07-11 06:35:00,
2013-07-10 23:45:00,78.4,51.4,30.09,WNW,291,0.0,9.0,39,0.00,,,0.00,Wunderground v.1.15,2013-07-11 06:45:00,
2013-07-10 23:50:00,79.0,51.2,30.09,NNW,337,2.0,9.0,38,0.00,,,0.00,Wunderground v.1.15,2013-07-11 06:50:00,
2013-07-10 23:55:00,79.5,50.9,30.09,NNW,333,5.0,9.0,37,0.00,,,0.00,Wunderground v.1.15,2013-07-11 06:55:00,